sensor_id;sensor_type;location;lat;lon;timestamp;P1;durP1;ratioP1;P2;durP2;ratioP2
76758;SDS011;65701;45.588;5.186;2023-04-01T00:00:54;0.00;;;0.00;;
76758;SDS011;65701;45.588;5.186;2023-04-01T00:03:21;0.50;;;0.50;;
76758;SDS011;65701;45.588;5.186;2023-04-01T00:05:48;1.00;;;0.00;;
76758;SDS011;65701;45.588;5.186;2023-04-01T00:08:14;1.50;;;0.50;;
76758;SDS011;65701;45.588;5.186;2023-04-01T00:10:39;0.00;;;0.00;;
76758;SDS011;65701;45.588;5.186;2023-04-01T00:13:05;0.00;;;0.00;;
76758;SDS011;65701;45.588;5.186;2023-04-01T00:15:31;2.75;;;1.00;;
76758;SDS011;65701;45.588;5.186;2023-04-01T00:17:56;1.00;;;0.00;;
76758;SDS011;65701;45.588;5.186;2023-04-01T00:20:22;1.75;;;0.75;;
76758;SDS011;65701;45.588;5.186;2023-04-01T00:22:48;0.00;;;0.00;;
76758;SDS011;65701;45.588;5.186;2023-04-01T00:25:13;0.00;;;0.00;;
76758;SDS011;65701;45.588;5.186;2023-04-01T00:27:39;0.50;;;0.50;;
76758;SDS011;65701;45.588;5.186;2023-04-01T00:30:06;2.50;;;1.00;;
76758;SDS011;65701;45.588;5.186;2023-04-01T00:32:32;0.00;;;0.00;;
76758;SDS011;65701;45.588;5.186;2023-04-01T00:34:58;2.25;;;0.25;;
76758;SDS011;65701;45.588;5.186;2023-04-01T00:37:24;1.50;;;0.75;;
76758;SDS011;65701;45.588;5.186;2023-04-01T00:39:51;2.75;;;1.75;;
76758;SDS011;65701;45.588;5.186;2023-04-01T00:42:16;0.50;;;0.50;;
76758;SDS011;65701;45.588;5.186;2023-04-01T00:44:44;0.00;;;0.00;;
76758;SDS011;65701;45.588;5.186;2023-04-01T00:47:12;2.00;;;1.00;;
76758;SDS011;65701;45.588;5.186;2023-04-01T00:49:39;0.00;;;0.00;;
76758;SDS011;65701;45.588;5.186;2023-04-01T00:52:07;0.00;;;0.00;;
76758;SDS011;65701;45.588;5.186;2023-04-01T00:54:36;1.50;;;0.75;;
76758;SDS011;65701;45.588;5.186;2023-04-01T00:57:06;2.50;;;0.00;;
76758;SDS011;65701;45.588;5.186;2023-04-01T00:59:48;0.25;;;0.00;;
76758;SDS011;65701;45.588;5.186;2023-04-01T01:02:17;1.00;;;0.50;;
76758;SDS011;65701;45.588;5.186;2023-04-01T01:04:44;1.25;;;1.00;;
76758;SDS011;65701;45.588;5.186;2023-04-01T01:07:45;2.00;;;1.00;;
76758;SDS011;65701;45.588;5.186;2023-04-01T01:10:10;2.00;;;2.00;;
76758;SDS011;65701;45.588;5.186;2023-04-01T01:15:44;4.75;;;4.50;;
76758;SDS011;65701;45.588;5.186;2023-04-01T01:21:12;4.00;;;3.25;;
76758;SDS011;65701;45.588;5.186;2023-04-01T01:27:11;4.75;;;3.25;;
76758;SDS011;65701;45.588;5.186;2023-04-01T01:37:42;4.00;;;2.75;;
76758;SDS011;65701;45.588;5.186;2023-04-01T01:40:10;2.00;;;2.00;;
76758;SDS011;65701;45.588;5.186;2023-04-01T01:42:43;8.50;;;3.50;;
76758;SDS011;65701;45.588;5.186;2023-04-01T01:45:14;4.25;;;4.25;;
76758;SDS011;65701;45.588;5.186;2023-04-01T01:47:43;2.00;;;2.00;;
76758;SDS011;65701;45.588;5.186;2023-04-01T01:50:10;1.00;;;1.00;;
76758;SDS011;65701;45.588;5.186;2023-04-01T01:52:37;0.50;;;0.50;;
76758;SDS011;65701;45.588;5.186;2023-04-01T01:55:02;4.00;;;1.00;;
76758;SDS011;65701;45.588;5.186;2023-04-01T01:57:48;1.00;;;1.00;;
76758;SDS011;65701;45.588;5.186;2023-04-01T02:00:14;1.75;;;0.00;;
76758;SDS011;65701;45.588;5.186;2023-04-01T02:02:42;1.00;;;1.00;;
76758;SDS011;65701;45.588;5.186;2023-04-01T02:05:10;0.00;;;0.00;;
76758;SDS011;65701;45.588;5.186;2023-04-01T02:07:41;3.25;;;1.00;;
76758;SDS011;65701;45.588;5.186;2023-04-01T02:10:12;1.50;;;1.00;;
76758;SDS011;65701;45.588;5.186;2023-04-01T02:12:38;0.50;;;0.00;;
76758;SDS011;65701;45.588;5.186;2023-04-01T02:15:06;0.00;;;0.00;;
76758;SDS011;65701;45.588;5.186;2023-04-01T02:17:34;0.00;;;0.00;;
76758;SDS011;65701;45.588;5.186;2023-04-01T02:20:12;1.75;;;1.75;;
76758;SDS011;65701;45.588;5.186;2023-04-01T02:22:47;0.00;;;0.00;;
76758;SDS011;65701;45.588;5.186;2023-04-01T02:25:23;0.50;;;0.00;;
76758;SDS011;65701;45.588;5.186;2023-04-01T02:27:52;2.00;;;0.75;;
76758;SDS011;65701;45.588;5.186;2023-04-01T02:30:20;1.00;;;1.00;;
76758;SDS011;65701;45.588;5.186;2023-04-01T02:32:46;2.25;;;2.25;;
76758;SDS011;65701;45.588;5.186;2023-04-01T02:35:13;2.00;;;0.75;;
76758;SDS011;65701;45.588;5.186;2023-04-01T02:37:41;2.00;;;0.00;;
76758;SDS011;65701;45.588;5.186;2023-04-01T02:40:09;1.00;;;1.00;;
76758;SDS011;65701;45.588;5.186;2023-04-01T02:42:37;1.00;;;1.00;;
76758;SDS011;65701;45.588;5.186;2023-04-01T02:45:03;2.00;;;1.00;;
76758;SDS011;65701;45.588;5.186;2023-04-01T02:47:29;2.25;;;2.00;;
76758;SDS011;65701;45.588;5.186;2023-04-01T02:49:55;1.00;;;1.00;;
76758;SDS011;65701;45.588;5.186;2023-04-01T02:52:24;1.00;;;1.00;;
76758;SDS011;65701;45.588;5.186;2023-04-01T02:54:50;1.25;;;1.25;;
76758;SDS011;65701;45.588;5.186;2023-04-01T02:57:15;0.00;;;0.00;;
76758;SDS011;65701;45.588;5.186;2023-04-01T02:59:41;1.25;;;0.75;;
76758;SDS011;65701;45.588;5.186;2023-04-01T03:02:06;1.50;;;1.00;;
76758;SDS011;65701;45.588;5.186;2023-04-01T03:04:32;0.00;;;0.00;;
76758;SDS011;65701;45.588;5.186;2023-04-01T03:06:57;0.25;;;0.25;;
76758;SDS011;65701;45.588;5.186;2023-04-01T03:09:23;0.75;;;0.00;;
76758;SDS011;65701;45.588;5.186;2023-04-01T03:11:48;1.25;;;1.25;;
76758;SDS011;65701;45.588;5.186;2023-04-01T03:14:14;3.25;;;0.75;;
76758;SDS011;65701;45.588;5.186;2023-04-01T03:16:39;0.00;;;0.00;;
76758;SDS011;65701;45.588;5.186;2023-04-01T03:19:05;1.50;;;0.75;;
76758;SDS011;65701;45.588;5.186;2023-04-01T03:21:30;1.00;;;1.00;;
76758;SDS011;65701;45.588;5.186;2023-04-01T03:23:56;1.25;;;1.00;;
76758;SDS011;65701;45.588;5.186;2023-04-01T03:26:21;0.00;;;0.00;;
76758;SDS011;65701;45.588;5.186;2023-04-01T03:28:47;0.75;;;0.75;;
76758;SDS011;65701;45.588;5.186;2023-04-01T03:31:13;3.00;;;1.00;;
76758;SDS011;65701;45.588;5.186;2023-04-01T03:33:41;0.00;;;0.00;;
76758;SDS011;65701;45.588;5.186;2023-04-01T03:36:07;0.00;;;0.00;;
76758;SDS011;65701;45.588;5.186;2023-04-01T03:38:33;0.25;;;0.25;;
76758;SDS011;65701;45.588;5.186;2023-04-01T03:40:59;0.00;;;0.00;;
76758;SDS011;65701;45.588;5.186;2023-04-01T03:43:25;0.50;;;0.00;;
76758;SDS011;65701;45.588;5.186;2023-04-01T03:45:51;0.25;;;0.25;;
76758;SDS011;65701;45.588;5.186;2023-04-01T03:48:17;2.25;;;0.25;;
76758;SDS011;65701;45.588;5.186;2023-04-01T03:50:44;0.50;;;0.00;;
76758;SDS011;65701;45.588;5.186;2023-04-01T03:53:10;2.50;;;0.00;;
76758;SDS011;65701;45.588;5.186;2023-04-01T03:55:36;2.00;;;0.00;;
76758;SDS011;65701;45.588;5.186;2023-04-01T03:58:02;0.00;;;0.00;;
76758;SDS011;65701;45.588;5.186;2023-04-01T04:00:29;0.00;;;0.00;;
76758;SDS011;65701;45.588;5.186;2023-04-01T04:02:55;1.00;;;0.00;;
76758;SDS011;65701;45.588;5.186;2023-04-01T04:05:22;1.00;;;1.00;;
76758;SDS011;65701;45.588;5.186;2023-04-01T04:07:48;0.50;;;0.00;;
76758;SDS011;65701;45.588;5.186;2023-04-01T04:10:14;0.00;;;0.00;;
76758;SDS011;65701;45.588;5.186;2023-04-01T04:12:39;0.00;;;0.00;;
76758;SDS011;65701;45.588;5.186;2023-04-01T04:15:06;0.00;;;0.00;;
76758;SDS011;65701;45.588;5.186;2023-04-01T04:17:32;1.00;;;0.00;;
76758;SDS011;65701;45.588;5.186;2023-04-01T04:19:57;0.00;;;0.00;;
76758;SDS011;65701;45.588;5.186;2023-04-01T04:22:23;0.25;;;0.00;;
76758;SDS011;65701;45.588;5.186;2023-04-01T04:24:48;0.00;;;0.00;;
76758;SDS011;65701;45.588;5.186;2023-04-01T04:27:14;0.00;;;0.00;;
76758;SDS011;65701;45.588;5.186;2023-04-01T04:29:40;0.00;;;0.00;;
76758;SDS011;65701;45.588;5.186;2023-04-01T04:32:05;1.00;;;0.00;;
76758;SDS011;65701;45.588;5.186;2023-04-01T04:34:31;0.00;;;0.00;;
76758;SDS011;65701;45.588;5.186;2023-04-01T04:36:57;0.00;;;0.00;;
76758;SDS011;65701;45.588;5.186;2023-04-01T04:39:23;0.00;;;0.00;;
76758;SDS011;65701;45.588;5.186;2023-04-01T04:41:48;0.00;;;0.00;;
76758;SDS011;65701;45.588;5.186;2023-04-01T04:44:14;0.00;;;0.00;;
76758;SDS011;65701;45.588;5.186;2023-04-01T04:46:40;0.00;;;0.00;;
76758;SDS011;65701;45.588;5.186;2023-04-01T04:49:05;0.00;;;0.00;;
76758;SDS011;65701;45.588;5.186;2023-04-01T04:51:32;0.00;;;0.00;;
76758;SDS011;65701;45.588;5.186;2023-04-01T04:54:00;0.00;;;0.00;;
76758;SDS011;65701;45.588;5.186;2023-04-01T04:56:26;0.00;;;0.00;;
76758;SDS011;65701;45.588;5.186;2023-04-01T04:58:52;0.75;;;0.75;;
76758;SDS011;65701;45.588;5.186;2023-04-01T05:01:18;0.00;;;0.00;;
76758;SDS011;65701;45.588;5.186;2023-04-01T05:03:44;0.50;;;0.00;;
76758;SDS011;65701;45.588;5.186;2023-04-01T05:06:11;0.00;;;0.00;;
76758;SDS011;65701;45.588;5.186;2023-04-01T05:08:38;0.00;;;0.00;;
76758;SDS011;65701;45.588;5.186;2023-04-01T05:11:06;1.50;;;0.25;;
76758;SDS011;65701;45.588;5.186;2023-04-01T05:13:35;0.00;;;0.00;;
76758;SDS011;65701;45.588;5.186;2023-04-01T05:16:01;2.00;;;1.00;;
76758;SDS011;65701;45.588;5.186;2023-04-01T05:18:27;0.50;;;0.50;;
76758;SDS011;65701;45.588;5.186;2023-04-01T05:20:53;1.00;;;1.00;;
76758;SDS011;65701;45.588;5.186;2023-04-01T05:23:20;0.00;;;0.00;;
76758;SDS011;65701;45.588;5.186;2023-04-01T05:25:47;1.00;;;0.00;;
76758;SDS011;65701;45.588;5.186;2023-04-01T05:28:14;0.00;;;0.00;;
76758;SDS011;65701;45.588;5.186;2023-04-01T05:30:40;0.00;;;0.00;;
76758;SDS011;65701;45.588;5.186;2023-04-01T05:33:06;0.00;;;0.00;;
76758;SDS011;65701;45.588;5.186;2023-04-01T05:35:32;0.00;;;0.00;;
76758;SDS011;65701;45.588;5.186;2023-04-01T05:37:58;0.00;;;0.00;;
76758;SDS011;65701;45.588;5.186;2023-04-01T05:40:24;1.00;;;0.00;;
76758;SDS011;65701;45.588;5.186;2023-04-01T05:42:49;0.00;;;0.00;;
76758;SDS011;65701;45.588;5.186;2023-04-01T05:45:15;0.00;;;0.00;;
76758;SDS011;65701;45.588;5.186;2023-04-01T05:47:41;1.75;;;0.75;;
76758;SDS011;65701;45.588;5.186;2023-04-01T05:50:09;0.00;;;0.00;;
76758;SDS011;65701;45.588;5.186;2023-04-01T05:52:36;1.00;;;1.00;;
76758;SDS011;65701;45.588;5.186;2023-04-01T05:55:03;0.00;;;0.00;;
76758;SDS011;65701;45.588;5.186;2023-04-01T05:57:30;0.00;;;0.00;;
76758;SDS011;65701;45.588;5.186;2023-04-01T05:59:56;1.00;;;0.00;;
76758;SDS011;65701;45.588;5.186;2023-04-01T06:02:21;0.00;;;0.00;;
76758;SDS011;65701;45.588;5.186;2023-04-01T06:04:47;0.00;;;0.00;;
76758;SDS011;65701;45.588;5.186;2023-04-01T06:07:16;0.50;;;0.50;;
76758;SDS011;65701;45.588;5.186;2023-04-01T06:09:43;0.00;;;0.00;;
76758;SDS011;65701;45.588;5.186;2023-04-01T06:28:48;1.00;;;0.00;;
76758;SDS011;65701;45.588;5.186;2023-04-01T06:40:38;0.00;;;0.00;;
76758;SDS011;65701;45.588;5.186;2023-04-01T06:51:41;2.00;;;1.00;;
76758;SDS011;65701;45.588;5.186;2023-04-01T06:54:19;1.50;;;0.00;;
76758;SDS011;65701;45.588;5.186;2023-04-01T06:56:51;1.75;;;0.75;;
76758;SDS011;65701;45.588;5.186;2023-04-01T06:59:25;0.00;;;0.00;;
76758;SDS011;65701;45.588;5.186;2023-04-01T07:02:00;1.50;;;0.25;;
76758;SDS011;65701;45.588;5.186;2023-04-01T07:04:40;0.50;;;0.50;;
76758;SDS011;65701;45.588;5.186;2023-04-01T07:07:33;2.00;;;0.00;;
76758;SDS011;65701;45.588;5.186;2023-04-01T07:13:03;0.00;;;0.00;;
76758;SDS011;65701;45.588;5.186;2023-04-01T07:15:39;0.00;;;0.00;;
76758;SDS011;65701;45.588;5.186;2023-04-01T07:18:21;1.00;;;0.00;;
76758;SDS011;65701;45.588;5.186;2023-04-01T07:20:53;1.25;;;0.00;;
76758;SDS011;65701;45.588;5.186;2023-04-01T07:23:21;0.50;;;0.50;;
76758;SDS011;65701;45.588;5.186;2023-04-01T07:25:58;2.00;;;1.00;;
76758;SDS011;65701;45.588;5.186;2023-04-01T07:28:30;0.00;;;0.00;;
76758;SDS011;65701;45.588;5.186;2023-04-01T07:31:05;0.00;;;0.00;;
76758;SDS011;65701;45.588;5.186;2023-04-01T07:33:46;1.00;;;1.00;;
76758;SDS011;65701;45.588;5.186;2023-04-01T07:36:38;0.25;;;0.00;;
76758;SDS011;65701;45.588;5.186;2023-04-01T07:44:54;1.00;;;1.00;;
76758;SDS011;65701;45.588;5.186;2023-04-01T07:50:19;3.25;;;0.00;;
76758;SDS011;65701;45.588;5.186;2023-04-01T07:55:49;0.00;;;0.00;;
76758;SDS011;65701;45.588;5.186;2023-04-01T07:58:23;0.00;;;0.00;;
76758;SDS011;65701;45.588;5.186;2023-04-01T08:10:33;0.00;;;0.00;;
76758;SDS011;65701;45.588;5.186;2023-04-01T08:13:15;0.00;;;0.00;;
76758;SDS011;65701;45.588;5.186;2023-04-01T08:21:41;0.00;;;0.00;;
76758;SDS011;65701;45.588;5.186;2023-04-01T08:24:16;0.00;;;0.00;;
76758;SDS011;65701;45.588;5.186;2023-04-01T08:26:45;0.00;;;0.00;;
76758;SDS011;65701;45.588;5.186;2023-04-01T08:29:23;0.00;;;0.00;;
76758;SDS011;65701;45.588;5.186;2023-04-01T08:32:00;0.00;;;0.00;;
76758;SDS011;65701;45.588;5.186;2023-04-01T08:34:44;0.00;;;0.00;;
76758;SDS011;65701;45.588;5.186;2023-04-01T08:37:32;0.00;;;0.00;;
76758;SDS011;65701;45.588;5.186;2023-04-01T08:51:06;0.25;;;0.25;;
76758;SDS011;65701;45.588;5.186;2023-04-01T08:59:46;0.00;;;0.00;;
76758;SDS011;65701;45.588;5.186;2023-04-01T09:14:35;0.00;;;0.00;;
76758;SDS011;65701;45.588;5.186;2023-04-01T09:42:13;1.00;;;0.00;;
76758;SDS011;65701;45.588;5.186;2023-04-01T10:16:06;0.00;;;0.00;;
76758;SDS011;65701;45.588;5.186;2023-04-01T10:18:30;1.00;;;0.00;;
76758;SDS011;65701;45.588;5.186;2023-04-01T10:21:19;1.00;;;1.00;;
76758;SDS011;65701;45.588;5.186;2023-04-01T10:32:45;0.00;;;0.00;;
76758;SDS011;65701;45.588;5.186;2023-04-01T10:35:33;0.75;;;0.00;;
76758;SDS011;65701;45.588;5.186;2023-04-01T10:44:06;0.00;;;0.00;;
76758;SDS011;65701;45.588;5.186;2023-04-01T10:49:47;0.00;;;0.00;;
76758;SDS011;65701;45.588;5.186;2023-04-01T10:52:38;0.00;;;0.00;;
76758;SDS011;65701;45.588;5.186;2023-04-01T10:58:43;2.00;;;0.00;;
76758;SDS011;65701;45.588;5.186;2023-04-01T11:07:40;0.00;;;0.00;;
76758;SDS011;65701;45.588;5.186;2023-04-01T11:13:31;0.00;;;0.00;;
76758;SDS011;65701;45.588;5.186;2023-04-01T11:33:04;0.50;;;0.50;;
76758;SDS011;65701;45.588;5.186;2023-04-01T11:38:26;0.00;;;0.00;;
76758;SDS011;65701;45.588;5.186;2023-04-01T11:41:20;0.00;;;0.00;;
76758;SDS011;65701;45.588;5.186;2023-04-01T11:47:10;0.00;;;0.00;;
76758;SDS011;65701;45.588;5.186;2023-04-01T11:52:45;0.50;;;0.50;;
76758;SDS011;65701;45.588;5.186;2023-04-01T12:00:38;0.00;;;0.00;;
76758;SDS011;65701;45.588;5.186;2023-04-01T12:06:25;0.25;;;0.00;;
76758;SDS011;65701;45.588;5.186;2023-04-01T12:09:06;0.75;;;0.75;;
76758;SDS011;65701;45.588;5.186;2023-04-01T12:26:23;0.00;;;0.00;;
76758;SDS011;65701;45.588;5.186;2023-04-01T12:31:31;0.25;;;0.00;;
76758;SDS011;65701;45.588;5.186;2023-04-01T12:53:42;0.00;;;0.00;;
76758;SDS011;65701;45.588;5.186;2023-04-01T12:56:18;0.00;;;0.00;;
76758;SDS011;65701;45.588;5.186;2023-04-01T13:04:47;0.00;;;0.00;;
76758;SDS011;65701;45.588;5.186;2023-04-01T13:19:16;0.00;;;0.00;;
76758;SDS011;65701;45.588;5.186;2023-04-01T13:27:18;0.00;;;0.00;;
76758;SDS011;65701;45.588;5.186;2023-04-01T13:32:50;0.00;;;0.00;;
76758;SDS011;65701;45.588;5.186;2023-04-01T13:41:13;0.00;;;0.00;;
76758;SDS011;65701;45.588;5.186;2023-04-01T13:43:59;0.00;;;0.00;;
76758;SDS011;65701;45.588;5.186;2023-04-01T14:05:01;0.00;;;0.00;;
76758;SDS011;65701;45.588;5.186;2023-04-01T14:07:47;0.00;;;0.00;;
76758;SDS011;65701;45.588;5.186;2023-04-01T14:26:54;0.00;;;0.00;;
76758;SDS011;65701;45.588;5.186;2023-04-01T14:29:37;0.00;;;0.00;;
76758;SDS011;65701;45.588;5.186;2023-04-01T14:35:38;0.00;;;0.00;;
76758;SDS011;65701;45.588;5.186;2023-04-01T14:41:00;0.00;;;0.00;;
76758;SDS011;65701;45.588;5.186;2023-04-01T14:43:35;0.00;;;0.00;;
76758;SDS011;65701;45.588;5.186;2023-04-01T14:53:10;0.00;;;0.00;;
76758;SDS011;65701;45.588;5.186;2023-04-01T14:55:00;0.00;;;0.00;;
76758;SDS011;65701;45.588;5.186;2023-04-01T14:57:36;0.00;;;0.00;;
76758;SDS011;65701;45.588;5.186;2023-04-01T15:05:49;1.00;;;0.00;;
76758;SDS011;65701;45.588;5.186;2023-04-01T15:18:45;0.00;;;0.00;;
76758;SDS011;65701;45.588;5.186;2023-04-01T15:21:38;0.00;;;0.00;;
76758;SDS011;65701;45.588;5.186;2023-04-01T15:27:08;2.00;;;0.00;;
76758;SDS011;65701;45.588;5.186;2023-04-01T15:29:54;0.00;;;0.00;;
76758;SDS011;65701;45.588;5.186;2023-04-01T15:32:45;0.00;;;0.00;;
76758;SDS011;65701;45.588;5.186;2023-04-01T15:37:59;0.00;;;0.00;;
76758;SDS011;65701;45.588;5.186;2023-04-01T15:43:40;0.00;;;0.00;;
76758;SDS011;65701;45.588;5.186;2023-04-01T15:48:48;0.00;;;0.00;;
76758;SDS011;65701;45.588;5.186;2023-04-01T15:59:40;0.00;;;0.00;;
76758;SDS011;65701;45.588;5.186;2023-04-01T16:02:28;0.00;;;0.00;;
76758;SDS011;65701;45.588;5.186;2023-04-01T16:05:09;0.50;;;0.50;;
76758;SDS011;65701;45.588;5.186;2023-04-01T16:16:31;0.00;;;0.00;;
76758;SDS011;65701;45.588;5.186;2023-04-01T16:19:17;0.00;;;0.00;;
76758;SDS011;65701;45.588;5.186;2023-04-01T16:24:43;1.00;;;1.00;;
76758;SDS011;65701;45.588;5.186;2023-04-01T16:41:46;1.00;;;1.00;;
76758;SDS011;65701;45.588;5.186;2023-04-01T16:44:21;1.00;;;1.00;;
76758;SDS011;65701;45.588;5.186;2023-04-01T16:46:54;0.00;;;0.00;;
76758;SDS011;65701;45.588;5.186;2023-04-01T16:49:31;0.00;;;0.00;;
76758;SDS011;65701;45.588;5.186;2023-04-01T16:54:43;0.00;;;0.00;;
76758;SDS011;65701;45.588;5.186;2023-04-01T16:57:21;0.00;;;0.00;;
76758;SDS011;65701;45.588;5.186;2023-04-01T17:05:48;0.00;;;0.00;;
76758;SDS011;65701;45.588;5.186;2023-04-01T17:10:53;3.25;;;2.50;;
76758;SDS011;65701;45.588;5.186;2023-04-01T17:13:46;1.25;;;0.25;;
76758;SDS011;65701;45.588;5.186;2023-04-01T17:21:22;1.00;;;1.00;;
76758;SDS011;65701;45.588;5.186;2023-04-01T17:24:05;0.00;;;0.00;;
76758;SDS011;65701;45.588;5.186;2023-04-01T17:31:56;0.00;;;0.00;;
76758;SDS011;65701;45.588;5.186;2023-04-01T17:45:05;1.00;;;1.00;;
76758;SDS011;65701;45.588;5.186;2023-04-01T17:47:43;4.00;;;1.00;;
76758;SDS011;65701;45.588;5.186;2023-04-01T17:50:21;3.00;;;3.00;;
76758;SDS011;65701;45.588;5.186;2023-04-01T17:58:21;1.75;;;1.75;;
76758;SDS011;65701;45.588;5.186;2023-04-01T18:00:58;0.25;;;0.25;;
76758;SDS011;65701;45.588;5.186;2023-04-01T18:11:45;5.75;;;5.00;;
76758;SDS011;65701;45.588;5.186;2023-04-01T18:22:58;4.00;;;4.00;;
76758;SDS011;65701;45.588;5.186;2023-04-01T18:25:33;1.00;;;1.00;;
76758;SDS011;65701;45.588;5.186;2023-04-01T18:30:55;2.00;;;0.00;;
76758;SDS011;65701;45.588;5.186;2023-04-01T18:33:50;0.00;;;0.00;;
76758;SDS011;65701;45.588;5.186;2023-04-01T18:37:28;1.25;;;1.00;;
76758;SDS011;65701;45.588;5.186;2023-04-01T18:39:23;2.00;;;2.00;;
76758;SDS011;65701;45.588;5.186;2023-04-01T18:50:02;5.50;;;4.00;;
76758;SDS011;65701;45.588;5.186;2023-04-01T18:52:43;4.00;;;4.00;;
76758;SDS011;65701;45.588;5.186;2023-04-01T18:55:24;4.25;;;4.25;;
76758;SDS011;65701;45.588;5.186;2023-04-01T19:06:26;5.00;;;5.00;;
76758;SDS011;65701;45.588;5.186;2023-04-01T19:09:00;7.00;;;6.00;;
76758;SDS011;65701;45.588;5.186;2023-04-01T19:11:47;4.00;;;4.00;;
76758;SDS011;65701;45.588;5.186;2023-04-01T19:17:07;4.00;;;3.00;;
76758;SDS011;65701;45.588;5.186;2023-04-01T19:27:53;1.00;;;1.00;;
76758;SDS011;65701;45.588;5.186;2023-04-01T19:30:41;3.25;;;2.00;;
76758;SDS011;65701;45.588;5.186;2023-04-01T19:36:53;2.25;;;2.25;;
76758;SDS011;65701;45.588;5.186;2023-04-01T19:54:15;7.75;;;7.75;;
76758;SDS011;65701;45.588;5.186;2023-04-01T19:56:23;9.00;;;9.00;;
76758;SDS011;65701;45.588;5.186;2023-04-01T19:59:09;12.75;;;11.75;;
